sensor_id;sensor_type;location;lat;lon;timestamp;temperature;humidity
32446;DHT22;18899;50.748;7.102;2023-07-29T00:00:45;19.50;99.90
32446;DHT22;18899;50.748;7.102;2023-07-29T00:03:10;19.50;99.90
32446;DHT22;18899;50.748;7.102;2023-07-29T00:05:39;19.60;99.90
32446;DHT22;18899;50.748;7.102;2023-07-29T00:08:05;19.50;99.90
32446;DHT22;18899;50.748;7.102;2023-07-29T00:10:32;19.50;99.90
32446;DHT22;18899;50.748;7.102;2023-07-29T00:12:58;19.50;99.90
32446;DHT22;18899;50.748;7.102;2023-07-29T00:15:24;19.60;99.90
32446;DHT22;18899;50.748;7.102;2023-07-29T00:17:49;19.60;99.90
32446;DHT22;18899;50.748;7.102;2023-07-29T00:20:16;19.50;99.90
32446;DHT22;18899;50.748;7.102;2023-07-29T00:22:41;19.60;99.90
32446;DHT22;18899;50.748;7.102;2023-07-29T00:25:07;19.50;99.90
32446;DHT22;18899;50.748;7.102;2023-07-29T00:27:33;19.60;99.90
32446;DHT22;18899;50.748;7.102;2023-07-29T00:29:58;19.60;99.90
32446;DHT22;18899;50.748;7.102;2023-07-29T00:32:24;19.60;99.90
32446;DHT22;18899;50.748;7.102;2023-07-29T00:34:49;19.60;99.90
32446;DHT22;18899;50.748;7.102;2023-07-29T00:37:15;19.50;99.90
32446;DHT22;18899;50.748;7.102;2023-07-29T00:39:40;19.60;99.90
32446;DHT22;18899;50.748;7.102;2023-07-29T00:42:06;19.60;99.90
32446;DHT22;18899;50.748;7.102;2023-07-29T00:44:32;19.60;99.90
32446;DHT22;18899;50.748;7.102;2023-07-29T00:46:58;19.60;99.90
32446;DHT22;18899;50.748;7.102;2023-07-29T00:49:26;19.60;99.90
32446;DHT22;18899;50.748;7.102;2023-07-29T00:51:51;19.60;99.90
32446;DHT22;18899;50.748;7.102;2023-07-29T00:54:17;19.50;99.90
32446;DHT22;18899;50.748;7.102;2023-07-29T00:56:43;19.50;99.90
32446;DHT22;18899;50.748;7.102;2023-07-29T00:59:08;19.60;99.90
32446;DHT22;18899;50.748;7.102;2023-07-29T01:01:34;19.60;99.90
32446;DHT22;18899;50.748;7.102;2023-07-29T01:04:00;19.60;99.90
32446;DHT22;18899;50.748;7.102;2023-07-29T01:06:53;19.50;99.90
32446;DHT22;18899;50.748;7.102;2023-07-29T01:09:25;19.60;99.90
32446;DHT22;18899;50.748;7.102;2023-07-29T01:12:07;19.60;99.90
32446;DHT22;18899;50.748;7.102;2023-07-29T01:14:45;19.60;99.90
32446;DHT22;18899;50.748;7.102;2023-07-29T01:17:19;19.60;99.90
32446;DHT22;18899;50.748;7.102;2023-07-29T01:22:33;19.60;99.90
32446;DHT22;18899;50.748;7.102;2023-07-29T01:24:59;19.60;99.90
32446;DHT22;18899;50.748;7.102;2023-07-29T01:27:25;19.50;99.90
32446;DHT22;18899;50.748;7.102;2023-07-29T01:29:55;19.60;99.90
32446;DHT22;18899;50.748;7.102;2023-07-29T01:37:37;19.60;99.90
32446;DHT22;18899;50.748;7.102;2023-07-29T01:40:05;19.60;99.90
32446;DHT22;18899;50.748;7.102;2023-07-29T01:42:32;19.70;99.90
32446;DHT22;18899;50.748;7.102;2023-07-29T01:44:58;19.80;99.90
32446;DHT22;18899;50.748;7.102;2023-07-29T01:47:23;19.80;99.90
32446;DHT22;18899;50.748;7.102;2023-07-29T01:49:49;19.80;99.90
32446;DHT22;18899;50.748;7.102;2023-07-29T01:52:14;19.90;99.90
32446;DHT22;18899;50.748;7.102;2023-07-29T01:54:40;19.90;99.90
32446;DHT22;18899;50.748;7.102;2023-07-29T01:57:05;19.90;99.90
32446;DHT22;18899;50.748;7.102;2023-07-29T01:59:31;19.90;99.90
32446;DHT22;18899;50.748;7.102;2023-07-29T02:01:56;19.90;99.90
32446;DHT22;18899;50.748;7.102;2023-07-29T02:04:22;19.90;99.90
32446;DHT22;18899;50.748;7.102;2023-07-29T02:06:48;20.00;99.90
32446;DHT22;18899;50.748;7.102;2023-07-29T02:09:13;19.90;99.90
32446;DHT22;18899;50.748;7.102;2023-07-29T02:11:39;19.90;99.90
32446;DHT22;18899;50.748;7.102;2023-07-29T02:14:04;20.00;99.90
32446;DHT22;18899;50.748;7.102;2023-07-29T02:16:30;20.00;99.90
32446;DHT22;18899;50.748;7.102;2023-07-29T02:18:55;19.90;99.90
32446;DHT22;18899;50.748;7.102;2023-07-29T02:21:21;19.80;99.90
32446;DHT22;18899;50.748;7.102;2023-07-29T02:23:46;19.80;99.90
32446;DHT22;18899;50.748;7.102;2023-07-29T02:26:12;19.70;99.90
32446;DHT22;18899;50.748;7.102;2023-07-29T02:28:37;19.70;99.90
32446;DHT22;18899;50.748;7.102;2023-07-29T02:31:16;19.70;99.90
32446;DHT22;18899;50.748;7.102;2023-07-29T02:33:42;19.70;99.90
32446;DHT22;18899;50.748;7.102;2023-07-29T02:36:08;19.60;99.90
32446;DHT22;18899;50.748;7.102;2023-07-29T02:38:33;19.60;99.90
32446;DHT22;18899;50.748;7.102;2023-07-29T02:40:59;19.60;99.90
32446;DHT22;18899;50.748;7.102;2023-07-29T02:43:24;19.50;99.90
32446;DHT22;18899;50.748;7.102;2023-07-29T02:45:50;19.50;99.90
32446;DHT22;18899;50.748;7.102;2023-07-29T02:48:15;19.50;99.90
32446;DHT22;18899;50.748;7.102;2023-07-29T02:50:41;19.40;99.90
32446;DHT22;18899;50.748;7.102;2023-07-29T02:53:06;19.40;99.90
32446;DHT22;18899;50.748;7.102;2023-07-29T02:55:32;19.40;99.90
32446;DHT22;18899;50.748;7.102;2023-07-29T02:57:57;19.40;99.90
32446;DHT22;18899;50.748;7.102;2023-07-29T03:00:23;19.50;99.90
32446;DHT22;18899;50.748;7.102;2023-07-29T03:02:50;19.50;99.90
32446;DHT22;18899;50.748;7.102;2023-07-29T03:05:16;19.40;99.90
32446;DHT22;18899;50.748;7.102;2023-07-29T03:07:41;19.40;99.90
32446;DHT22;18899;50.748;7.102;2023-07-29T03:10:07;19.30;99.90
32446;DHT22;18899;50.748;7.102;2023-07-29T03:12:33;19.30;99.90
32446;DHT22;18899;50.748;7.102;2023-07-29T03:14:58;19.20;99.90
32446;DHT22;18899;50.748;7.102;2023-07-29T03:17:25;19.10;99.90
32446;DHT22;18899;50.748;7.102;2023-07-29T03:19:52;19.10;99.90
32446;DHT22;18899;50.748;7.102;2023-07-29T03:22:17;19.00;99.90
32446;DHT22;18899;50.748;7.102;2023-07-29T03:24:43;18.90;99.90
32446;DHT22;18899;50.748;7.102;2023-07-29T03:27:08;18.80;99.90
32446;DHT22;18899;50.748;7.102;2023-07-29T03:29:35;18.80;99.90
32446;DHT22;18899;50.748;7.102;2023-07-29T03:32:00;18.70;99.90
32446;DHT22;18899;50.748;7.102;2023-07-29T03:34:26;18.60;99.90
32446;DHT22;18899;50.748;7.102;2023-07-29T03:36:52;18.60;99.90
32446;DHT22;18899;50.748;7.102;2023-07-29T03:39:17;18.60;99.90
32446;DHT22;18899;50.748;7.102;2023-07-29T03:41:43;18.60;99.90
32446;DHT22;18899;50.748;7.102;2023-07-29T03:44:08;18.60;99.90
32446;DHT22;18899;50.748;7.102;2023-07-29T03:46:34;18.60;99.90
32446;DHT22;18899;50.748;7.102;2023-07-29T03:48:59;18.60;99.90
32446;DHT22;18899;50.748;7.102;2023-07-29T03:51:25;18.60;99.90
32446;DHT22;18899;50.748;7.102;2023-07-29T03:53:50;18.50;99.90
32446;DHT22;18899;50.748;7.102;2023-07-29T03:56:16;18.50;99.90
32446;DHT22;18899;50.748;7.102;2023-07-29T03:58:42;18.50;99.90
32446;DHT22;18899;50.748;7.102;2023-07-29T04:01:09;18.40;99.90
32446;DHT22;18899;50.748;7.102;2023-07-29T04:03:34;18.40;99.90
32446;DHT22;18899;50.748;7.102;2023-07-29T04:06:00;18.40;99.90
32446;DHT22;18899;50.748;7.102;2023-07-29T04:08:26;18.50;99.90
32446;DHT22;18899;50.748;7.102;2023-07-29T04:10:51;18.40;99.90
32446;DHT22;18899;50.748;7.102;2023-07-29T04:13:17;18.40;99.90
32446;DHT22;18899;50.748;7.102;2023-07-29T04:15:42;18.40;99.90
32446;DHT22;18899;50.748;7.102;2023-07-29T04:18:08;18.40;99.90
32446;DHT22;18899;50.748;7.102;2023-07-29T04:20:33;18.40;99.90
32446;DHT22;18899;50.748;7.102;2023-07-29T04:22:59;18.40;99.90
32446;DHT22;18899;50.748;7.102;2023-07-29T04:25:25;18.40;99.90
32446;DHT22;18899;50.748;7.102;2023-07-29T04:27:50;18.40;99.90
32446;DHT22;18899;50.748;7.102;2023-07-29T04:30:16;18.40;99.90
32446;DHT22;18899;50.748;7.102;2023-07-29T04:32:42;18.40;99.90
32446;DHT22;18899;50.748;7.102;2023-07-29T04:35:08;18.40;99.90
32446;DHT22;18899;50.748;7.102;2023-07-29T04:37:34;18.50;99.90
32446;DHT22;18899;50.748;7.102;2023-07-29T04:39:59;18.50;99.90
32446;DHT22;18899;50.748;7.102;2023-07-29T04:42:25;18.50;99.90
32446;DHT22;18899;50.748;7.102;2023-07-29T04:44:50;18.60;99.90
32446;DHT22;18899;50.748;7.102;2023-07-29T04:47:16;18.70;99.90
32446;DHT22;18899;50.748;7.102;2023-07-29T04:49:41;18.80;99.90
32446;DHT22;18899;50.748;7.102;2023-07-29T04:52:07;18.80;99.90
32446;DHT22;18899;50.748;7.102;2023-07-29T04:54:33;18.70;99.90
32446;DHT22;18899;50.748;7.102;2023-07-29T04:56:58;18.70;99.90
32446;DHT22;18899;50.748;7.102;2023-07-29T04:59:24;18.70;99.90
32446;DHT22;18899;50.748;7.102;2023-07-29T05:01:49;18.70;99.90
32446;DHT22;18899;50.748;7.102;2023-07-29T05:04:15;18.70;99.90
32446;DHT22;18899;50.748;7.102;2023-07-29T05:06:41;18.60;99.90
32446;DHT22;18899;50.748;7.102;2023-07-29T05:09:16;18.60;99.90
32446;DHT22;18899;50.748;7.102;2023-07-29T05:11:43;18.70;99.90
32446;DHT22;18899;50.748;7.102;2023-07-29T05:14:16;18.70;99.90
32446;DHT22;18899;50.748;7.102;2023-07-29T05:16:42;18.80;99.90
32446;DHT22;18899;50.748;7.102;2023-07-29T05:19:08;18.80;99.90
32446;DHT22;18899;50.748;7.102;2023-07-29T05:21:33;18.70;99.90
32446;DHT22;18899;50.748;7.102;2023-07-29T05:23:59;18.70;99.90
32446;DHT22;18899;50.748;7.102;2023-07-29T05:26:25;18.80;99.90
32446;DHT22;18899;50.748;7.102;2023-07-29T05:28:50;18.80;99.90
32446;DHT22;18899;50.748;7.102;2023-07-29T05:31:16;18.90;99.90
32446;DHT22;18899;50.748;7.102;2023-07-29T05:33:42;18.90;99.90
32446;DHT22;18899;50.748;7.102;2023-07-29T05:36:07;19.00;99.90
32446;DHT22;18899;50.748;7.102;2023-07-29T05:38:33;19.10;99.90
32446;DHT22;18899;50.748;7.102;2023-07-29T05:40:58;19.10;99.90
32446;DHT22;18899;50.748;7.102;2023-07-29T05:43:24;19.20;99.90
32446;DHT22;18899;50.748;7.102;2023-07-29T05:45:50;19.30;99.90
32446;DHT22;18899;50.748;7.102;2023-07-29T05:48:16;19.30;99.90
32446;DHT22;18899;50.748;7.102;2023-07-29T05:50:42;19.30;99.90
32446;DHT22;18899;50.748;7.102;2023-07-29T05:53:07;19.40;99.90
32446;DHT22;18899;50.748;7.102;2023-07-29T05:55:33;19.50;99.90
32446;DHT22;18899;50.748;7.102;2023-07-29T05:57:58;19.40;99.90
32446;DHT22;18899;50.748;7.102;2023-07-29T06:00:24;19.40;99.90
32446;DHT22;18899;50.748;7.102;2023-07-29T06:02:49;19.40;99.90
32446;DHT22;18899;50.748;7.102;2023-07-29T06:05:15;19.40;99.90
32446;DHT22;18899;50.748;7.102;2023-07-29T06:07:40;19.50;99.90
32446;DHT22;18899;50.748;7.102;2023-07-29T06:10:10;19.70;99.90
32446;DHT22;18899;50.748;7.102;2023-07-29T06:12:37;19.70;99.90
32446;DHT22;18899;50.748;7.102;2023-07-29T06:15:04;19.70;99.90
32446;DHT22;18899;50.748;7.102;2023-07-29T06:17:29;19.60;99.90
32446;DHT22;18899;50.748;7.102;2023-07-29T06:19:55;19.60;99.90
32446;DHT22;18899;50.748;7.102;2023-07-29T06:22:20;19.60;99.90
32446;DHT22;18899;50.748;7.102;2023-07-29T06:24:46;19.60;99.90
32446;DHT22;18899;50.748;7.102;2023-07-29T06:27:11;19.70;99.90
32446;DHT22;18899;50.748;7.102;2023-07-29T06:29:37;19.70;99.90
32446;DHT22;18899;50.748;7.102;2023-07-29T06:32:03;19.80;99.90
32446;DHT22;18899;50.748;7.102;2023-07-29T06:34:28;19.80;99.90
32446;DHT22;18899;50.748;7.102;2023-07-29T06:36:54;19.90;99.90
32446;DHT22;18899;50.748;7.102;2023-07-29T06:39:19;20.00;99.90
32446;DHT22;18899;50.748;7.102;2023-07-29T06:41:45;20.10;99.90
32446;DHT22;18899;50.748;7.102;2023-07-29T06:44:10;20.10;99.90
32446;DHT22;18899;50.748;7.102;2023-07-29T06:46:36;20.10;99.90
32446;DHT22;18899;50.748;7.102;2023-07-29T06:49:01;20.20;99.90
32446;DHT22;18899;50.748;7.102;2023-07-29T06:51:27;20.20;99.90
32446;DHT22;18899;50.748;7.102;2023-07-29T06:53:57;20.30;99.90
32446;DHT22;18899;50.748;7.102;2023-07-29T06:56:23;20.30;99.90
32446;DHT22;18899;50.748;7.102;2023-07-29T06:58:48;20.50;99.90
32446;DHT22;18899;50.748;7.102;2023-07-29T07:01:14;20.80;99.90
32446;DHT22;18899;50.748;7.102;2023-07-29T07:03:39;21.20;99.90
32446;DHT22;18899;50.748;7.102;2023-07-29T07:06:05;21.50;99.90
32446;DHT22;18899;50.748;7.102;2023-07-29T07:08:31;21.80;99.90
32446;DHT22;18899;50.748;7.102;2023-07-29T07:10:56;21.80;99.90
32446;DHT22;18899;50.748;7.102;2023-07-29T07:13:22;21.50;99.90
32446;DHT22;18899;50.748;7.102;2023-07-29T07:15:47;21.40;99.90
32446;DHT22;18899;50.748;7.102;2023-07-29T07:18:13;21.40;99.90
32446;DHT22;18899;50.748;7.102;2023-07-29T07:20:39;21.40;99.90
32446;DHT22;18899;50.748;7.102;2023-07-29T07:23:04;21.50;99.90
32446;DHT22;18899;50.748;7.102;2023-07-29T07:25:36;21.50;99.90
32446;DHT22;18899;50.748;7.102;2023-07-29T07:28:02;21.40;99.90
32446;DHT22;18899;50.748;7.102;2023-07-29T07:30:28;21.40;99.90
32446;DHT22;18899;50.748;7.102;2023-07-29T07:32:53;21.30;99.90
32446;DHT22;18899;50.748;7.102;2023-07-29T07:35:19;21.10;99.90
32446;DHT22;18899;50.748;7.102;2023-07-29T07:37:44;21.00;99.90
32446;DHT22;18899;50.748;7.102;2023-07-29T07:40:10;21.10;99.90
32446;DHT22;18899;50.748;7.102;2023-07-29T07:42:36;21.20;99.90
32446;DHT22;18899;50.748;7.102;2023-07-29T07:45:02;21.30;99.90
32446;DHT22;18899;50.748;7.102;2023-07-29T07:47:27;21.60;99.90
32446;DHT22;18899;50.748;7.102;2023-07-29T07:49:53;21.70;99.90
32446;DHT22;18899;50.748;7.102;2023-07-29T07:52:18;21.70;99.90
32446;DHT22;18899;50.748;7.102;2023-07-29T07:54:44;21.90;99.90
32446;DHT22;18899;50.748;7.102;2023-07-29T07:57:09;21.70;99.90
32446;DHT22;18899;50.748;7.102;2023-07-29T07:59:35;21.90;99.90
32446;DHT22;18899;50.748;7.102;2023-07-29T08:02:00;22.20;99.90
32446;DHT22;18899;50.748;7.102;2023-07-29T08:04:26;23.10;99.90
32446;DHT22;18899;50.748;7.102;2023-07-29T08:06:52;24.20;99.90
32446;DHT22;18899;50.748;7.102;2023-07-29T08:09:17;24.20;99.90
32446;DHT22;18899;50.748;7.102;2023-07-29T08:11:43;24.30;99.90
32446;DHT22;18899;50.748;7.102;2023-07-29T08:14:08;24.20;99.90
32446;DHT22;18899;50.748;7.102;2023-07-29T08:16:34;24.20;99.90
32446;DHT22;18899;50.748;7.102;2023-07-29T08:18:59;23.90;99.90
32446;DHT22;18899;50.748;7.102;2023-07-29T08:21:26;23.90;99.90
32446;DHT22;18899;50.748;7.102;2023-07-29T08:23:52;23.80;99.90
32446;DHT22;18899;50.748;7.102;2023-07-29T08:26:17;23.70;99.90
32446;DHT22;18899;50.748;7.102;2023-07-29T08:28:43;23.80;99.90
32446;DHT22;18899;50.748;7.102;2023-07-29T08:31:08;23.80;99.90
32446;DHT22;18899;50.748;7.102;2023-07-29T08:33:34;23.80;99.90
32446;DHT22;18899;50.748;7.102;2023-07-29T08:36:00;23.90;99.90
32446;DHT22;18899;50.748;7.102;2023-07-29T08:38:26;24.10;99.90
32446;DHT22;18899;50.748;7.102;2023-07-29T08:43:38;24.20;99.90
32446;DHT22;18899;50.748;7.102;2023-07-29T08:46:04;24.60;99.90
32446;DHT22;18899;50.748;7.102;2023-07-29T08:48:36;24.10;99.90
32446;DHT22;18899;50.748;7.102;2023-07-29T08:51:05;23.60;99.90
32446;DHT22;18899;50.748;7.102;2023-07-29T08:53:33;23.20;99.90
32446;DHT22;18899;50.748;7.102;2023-07-29T08:55:59;23.10;99.90
32446;DHT22;18899;50.748;7.102;2023-07-29T08:58:25;22.90;99.90
32446;DHT22;18899;50.748;7.102;2023-07-29T09:00:51;22.60;99.90
32446;DHT22;18899;50.748;7.102;2023-07-29T09:03:16;22.30;99.90
32446;DHT22;18899;50.748;7.102;2023-07-29T09:05:42;22.20;99.90
32446;DHT22;18899;50.748;7.102;2023-07-29T09:08:07;21.90;99.90
32446;DHT22;18899;50.748;7.102;2023-07-29T09:10:35;21.70;99.90
32446;DHT22;18899;50.748;7.102;2023-07-29T09:13:02;21.70;99.90
32446;DHT22;18899;50.748;7.102;2023-07-29T09:15:30;21.40;99.90
32446;DHT22;18899;50.748;7.102;2023-07-29T09:17:56;21.30;99.90
32446;DHT22;18899;50.748;7.102;2023-07-29T09:20:26;21.30;99.90
32446;DHT22;18899;50.748;7.102;2023-07-29T09:22:58;21.40;99.90
32446;DHT22;18899;50.748;7.102;2023-07-29T09:25:28;21.40;99.90
32446;DHT22;18899;50.748;7.102;2023-07-29T09:28:02;21.40;99.90
32446;DHT22;18899;50.748;7.102;2023-07-29T09:30:32;21.50;99.90
32446;DHT22;18899;50.748;7.102;2023-07-29T09:32:58;21.50;99.90
32446;DHT22;18899;50.748;7.102;2023-07-29T09:35:31;21.50;99.90
32446;DHT22;18899;50.748;7.102;2023-07-29T09:37:57;21.70;99.90
32446;DHT22;18899;50.748;7.102;2023-07-29T09:40:23;21.80;99.90
32446;DHT22;18899;50.748;7.102;2023-07-29T09:42:50;22.00;99.90
32446;DHT22;18899;50.748;7.102;2023-07-29T09:45:26;22.10;99.90
32446;DHT22;18899;50.748;7.102;2023-07-29T09:47:57;22.30;99.90
32446;DHT22;18899;50.748;7.102;2023-07-29T09:50:27;22.40;99.90
32446;DHT22;18899;50.748;7.102;2023-07-29T09:52:54;22.50;99.90
32446;DHT22;18899;50.748;7.102;2023-07-29T09:55:21;22.50;99.90
32446;DHT22;18899;50.748;7.102;2023-07-29T09:57:47;22.60;99.90
32446;DHT22;18899;50.748;7.102;2023-07-29T10:00:13;22.50;99.90
32446;DHT22;18899;50.748;7.102;2023-07-29T10:02:40;22.50;99.90
32446;DHT22;18899;50.748;7.102;2023-07-29T10:05:07;22.40;99.90
32446;DHT22;18899;50.748;7.102;2023-07-29T10:07:37;22.30;99.90
32446;DHT22;18899;50.748;7.102;2023-07-29T10:10:04;22.20;99.90
32446;DHT22;18899;50.748;7.102;2023-07-29T10:12:31;22.20;99.90
32446;DHT22;18899;50.748;7.102;2023-07-29T10:14:59;22.20;99.90
32446;DHT22;18899;50.748;7.102;2023-07-29T10:17:26;22.10;99.90
32446;DHT22;18899;50.748;7.102;2023-07-29T10:19:52;22.10;99.90
32446;DHT22;18899;50.748;7.102;2023-07-29T10:22:20;22.20;99.90
32446;DHT22;18899;50.748;7.102;2023-07-29T10:24:47;22.20;99.90
32446;DHT22;18899;50.748;7.102;2023-07-29T10:27:15;22.10;99.90
32446;DHT22;18899;50.748;7.102;2023-07-29T10:29:43;22.00;99.90
32446;DHT22;18899;50.748;7.102;2023-07-29T10:32:11;21.70;99.90
32446;DHT22;18899;50.748;7.102;2023-07-29T10:34:37;21.50;99.90
32446;DHT22;18899;50.748;7.102;2023-07-29T10:37:03;21.10;99.90
32446;DHT22;18899;50.748;7.102;2023-07-29T10:39:38;20.90;99.90
32446;DHT22;18899;50.748;7.102;2023-07-29T10:42:06;20.80;99.90
32446;DHT22;18899;50.748;7.102;2023-07-29T10:47:12;20.70;99.90
32446;DHT22;18899;50.748;7.102;2023-07-29T10:49:40;20.50;99.90
32446;DHT22;18899;50.748;7.102;2023-07-29T10:52:06;20.40;99.90
32446;DHT22;18899;50.748;7.102;2023-07-29T10:54:44;20.30;99.90
32446;DHT22;18899;50.748;7.102;2023-07-29T10:57:33;20.20;99.90
32446;DHT22;18899;50.748;7.102;2023-07-29T11:00:00;20.10;99.90
32446;DHT22;18899;50.748;7.102;2023-07-29T11:02:33;20.20;99.90
32446;DHT22;18899;50.748;7.102;2023-07-29T11:05:05;20.30;99.90
32446;DHT22;18899;50.748;7.102;2023-07-29T11:07:31;20.40;99.90
32446;DHT22;18899;50.748;7.102;2023-07-29T11:10:03;20.40;99.90
32446;DHT22;18899;50.748;7.102;2023-07-29T11:12:51;20.50;99.90
32446;DHT22;18899;50.748;7.102;2023-07-29T11:15:22;20.40;99.90
32446;DHT22;18899;50.748;7.102;2023-07-29T11:17:53;20.40;99.90
32446;DHT22;18899;50.748;7.102;2023-07-29T11:20:22;20.50;99.90
32446;DHT22;18899;50.748;7.102;2023-07-29T11:22:48;20.80;99.90
32446;DHT22;18899;50.748;7.102;2023-07-29T11:25:15;21.10;99.90
32446;DHT22;18899;50.748;7.102;2023-07-29T11:27:41;21.40;99.90
32446;DHT22;18899;50.748;7.102;2023-07-29T11:30:09;21.30;99.90
32446;DHT22;18899;50.748;7.102;2023-07-29T11:32:37;21.40;99.90
32446;DHT22;18899;50.748;7.102;2023-07-29T11:35:11;21.50;99.90
32446;DHT22;18899;50.748;7.102;2023-07-29T11:37:38;21.60;99.90
32446;DHT22;18899;50.748;7.102;2023-07-29T11:40:04;21.90;99.90
32446;DHT22;18899;50.748;7.102;2023-07-29T11:42:32;22.10;99.90
32446;DHT22;18899;50.748;7.102;2023-07-29T11:44:59;22.30;99.90
32446;DHT22;18899;50.748;7.102;2023-07-29T11:47:25;22.50;99.90
32446;DHT22;18899;50.748;7.102;2023-07-29T11:49:51;22.60;99.90
32446;DHT22;18899;50.748;7.102;2023-07-29T11:52:18;22.60;99.90
32446;DHT22;18899;50.748;7.102;2023-07-29T11:54:46;22.70;99.90
32446;DHT22;18899;50.748;7.102;2023-07-29T11:57:12;22.60;99.90
32446;DHT22;18899;50.748;7.102;2023-07-29T11:59:39;22.60;99.90
32446;DHT22;18899;50.748;7.102;2023-07-29T12:02:08;22.70;99.90
32446;DHT22;18899;50.748;7.102;2023-07-29T12:04:35;23.00;99.90
32446;DHT22;18899;50.748;7.102;2023-07-29T12:07:01;23.00;99.90
32446;DHT22;18899;50.748;7.102;2023-07-29T12:09:27;23.10;99.90
32446;DHT22;18899;50.748;7.102;2023-07-29T12:11:55;23.10;99.90
32446;DHT22;18899;50.748;7.102;2023-07-29T12:14:21;23.20;99.90
32446;DHT22;18899;50.748;7.102;2023-07-29T12:16:48;23.60;99.90
32446;DHT22;18899;50.748;7.102;2023-07-29T12:19:15;24.00;99.90
32446;DHT22;18899;50.748;7.102;2023-07-29T12:21:44;24.00;99.90
32446;DHT22;18899;50.748;7.102;2023-07-29T12:24:12;23.90;99.90
32446;DHT22;18899;50.748;7.102;2023-07-29T12:26:37;23.90;99.90
32446;DHT22;18899;50.748;7.102;2023-07-29T12:29:17;23.80;99.90
32446;DHT22;18899;50.748;7.102;2023-07-29T12:31:45;23.70;99.90
32446;DHT22;18899;50.748;7.102;2023-07-29T12:34:20;23.60;99.90
32446;DHT22;18899;50.748;7.102;2023-07-29T12:36:50;23.30;99.90
32446;DHT22;18899;50.748;7.102;2023-07-29T12:39:20;23.00;99.90
32446;DHT22;18899;50.748;7.102;2023-07-29T12:41:49;22.90;99.90
32446;DHT22;18899;50.748;7.102;2023-07-29T12:44:15;22.80;99.90
32446;DHT22;18899;50.748;7.102;2023-07-29T12:46:41;22.70;99.90
32446;DHT22;18899;50.748;7.102;2023-07-29T12:49:06;22.80;99.90
32446;DHT22;18899;50.748;7.102;2023-07-29T12:51:32;22.90;99.90
32446;DHT22;18899;50.748;7.102;2023-07-29T12:53:58;23.00;99.90
32446;DHT22;18899;50.748;7.102;2023-07-29T12:56:24;22.90;99.90
32446;DHT22;18899;50.748;7.102;2023-07-29T12:58:49;22.90;99.90
32446;DHT22;18899;50.748;7.102;2023-07-29T13:01:15;23.00;99.90
32446;DHT22;18899;50.748;7.102;2023-07-29T13:03:43;23.30;99.90
32446;DHT22;18899;50.748;7.102;2023-07-29T13:06:08;23.50;99.90
32446;DHT22;18899;50.748;7.102;2023-07-29T13:08:34;23.70;99.90
32446;DHT22;18899;50.748;7.102;2023-07-29T13:11:00;23.70;99.90
32446;DHT22;18899;50.748;7.102;2023-07-29T13:13:25;23.70;99.90
32446;DHT22;18899;50.748;7.102;2023-07-29T13:15:51;23.70;99.90
32446;DHT22;18899;50.748;7.102;2023-07-29T13:18:16;23.70;99.90
32446;DHT22;18899;50.748;7.102;2023-07-29T13:20:42;23.50;99.90
32446;DHT22;18899;50.748;7.102;2023-07-29T13:23:07;23.50;99.90
32446;DHT22;18899;50.748;7.102;2023-07-29T13:25:33;23.30;99.90
32446;DHT22;18899;50.748;7.102;2023-07-29T13:27:58;23.50;99.90
32446;DHT22;18899;50.748;7.102;2023-07-29T13:30:24;23.40;99.90
32446;DHT22;18899;50.748;7.102;2023-07-29T13:32:49;23.30;99.90
32446;DHT22;18899;50.748;7.102;2023-07-29T13:35:15;23.00;99.90
32446;DHT22;18899;50.748;7.102;2023-07-29T13:37:40;23.10;99.90
32446;DHT22;18899;50.748;7.102;2023-07-29T13:40:06;22.90;99.90
32446;DHT22;18899;50.748;7.102;2023-07-29T13:42:32;22.50;99.90
32446;DHT22;18899;50.748;7.102;2023-07-29T13:44:58;22.30;99.90
32446;DHT22;18899;50.748;7.102;2023-07-29T13:47:23;22.20;99.90
32446;DHT22;18899;50.748;7.102;2023-07-29T13:49:49;22.20;99.90
32446;DHT22;18899;50.748;7.102;2023-07-29T13:52:14;22.00;99.90
32446;DHT22;18899;50.748;7.102;2023-07-29T13:54:40;21.90;99.90
32446;DHT22;18899;50.748;7.102;2023-07-29T13:57:06;21.80;99.90
32446;DHT22;18899;50.748;7.102;2023-07-29T13:59:32;21.80;99.90
32446;DHT22;18899;50.748;7.102;2023-07-29T14:01:58;21.60;99.90
32446;DHT22;18899;50.748;7.102;2023-07-29T14:04:23;21.50;99.90
32446;DHT22;18899;50.748;7.102;2023-07-29T14:06:49;21.50;99.90
32446;DHT22;18899;50.748;7.102;2023-07-29T14:09:14;21.50;99.90
32446;DHT22;18899;50.748;7.102;2023-07-29T14:11:40;21.40;99.90
32446;DHT22;18899;50.748;7.102;2023-07-29T14:14:06;21.40;99.90
32446;DHT22;18899;50.748;7.102;2023-07-29T14:16:31;21.40;99.90
32446;DHT22;18899;50.748;7.102;2023-07-29T14:18:57;21.40;99.90
32446;DHT22;18899;50.748;7.102;2023-07-29T14:21:22;21.40;99.90
32446;DHT22;18899;50.748;7.102;2023-07-29T14:23:48;21.40;99.90
32446;DHT22;18899;50.748;7.102;2023-07-29T14:26:13;21.50;99.90
32446;DHT22;18899;50.748;7.102;2023-07-29T14:28:39;21.50;99.90
32446;DHT22;18899;50.748;7.102;2023-07-29T14:31:04;21.40;99.90
32446;DHT22;18899;50.748;7.102;2023-07-29T14:33:30;21.40;99.90
32446;DHT22;18899;50.748;7.102;2023-07-29T14:35:56;21.50;99.90
32446;DHT22;18899;50.748;7.102;2023-07-29T14:38:21;21.40;99.90
32446;DHT22;18899;50.748;7.102;2023-07-29T14:40:48;21.50;99.90
32446;DHT22;18899;50.748;7.102;2023-07-29T14:43:14;21.50;99.90
32446;DHT22;18899;50.748;7.102;2023-07-29T14:45:39;21.40;99.90
32446;DHT22;18899;50.748;7.102;2023-07-29T14:48:05;21.10;99.90
32446;DHT22;18899;50.748;7.102;2023-07-29T14:50:31;21.10;99.90
32446;DHT22;18899;50.748;7.102;2023-07-29T14:52:56;21.00;99.90
32446;DHT22;18899;50.748;7.102;2023-07-29T14:55:22;21.10;99.90
32446;DHT22;18899;50.748;7.102;2023-07-29T14:57:47;21.00;99.90
32446;DHT22;18899;50.748;7.102;2023-07-29T15:00:13;21.00;99.90
32446;DHT22;18899;50.748;7.102;2023-07-29T15:02:40;21.00;99.90
32446;DHT22;18899;50.748;7.102;2023-07-29T15:05:07;21.10;99.90
32446;DHT22;18899;50.748;7.102;2023-07-29T15:07:32;21.00;99.90
32446;DHT22;18899;50.748;7.102;2023-07-29T15:09:58;21.10;99.90
32446;DHT22;18899;50.748;7.102;2023-07-29T15:12:23;21.10;99.90
32446;DHT22;18899;50.748;7.102;2023-07-29T15:14:49;21.00;99.90
32446;DHT22;18899;50.748;7.102;2023-07-29T15:17:15;21.00;99.90
32446;DHT22;18899;50.748;7.102;2023-07-29T15:19:40;20.90;99.90
32446;DHT22;18899;50.748;7.102;2023-07-29T15:22:06;20.90;99.90
32446;DHT22;18899;50.748;7.102;2023-07-29T15:24:31;21.20;99.90
32446;DHT22;18899;50.748;7.102;2023-07-29T15:26:57;21.20;99.90
32446;DHT22;18899;50.748;7.102;2023-07-29T15:29:23;21.20;99.90
32446;DHT22;18899;50.748;7.102;2023-07-29T15:31:48;21.20;99.90
32446;DHT22;18899;50.748;7.102;2023-07-29T15:34:14;21.20;99.90
32446;DHT22;18899;50.748;7.102;2023-07-29T15:36:39;21.20;99.90
32446;DHT22;18899;50.748;7.102;2023-07-29T15:39:05;21.20;99.90